createdAt,value
2017-06-04T00:02:00.985Z,67.50
2017-06-04T00:04:28.708Z,67.30
2017-06-04T00:06:56.690Z,67.50
2017-06-04T00:09:24.416Z,68.00
2017-06-04T00:11:52.144Z,68.60
2017-06-04T00:14:19.896Z,68.90
2017-06-04T00:16:47.618Z,69.30
2017-06-04T00:19:15.381Z,70.40
2017-06-04T00:21:43.108Z,70.50
2017-06-04T00:24:11.595Z,72.30
2017-06-04T00:26:39.380Z,72.30
2017-06-04T00:29:07.108Z,73.00
2017-06-04T00:31:34.876Z,72.90
2017-06-04T00:34:02.606Z,73.00
2017-06-04T00:36:30.340Z,74.70
2017-06-04T00:38:58.103Z,74.80
2017-06-04T00:41:25.825Z,75.30
2017-06-04T00:43:53.616Z,75.40
2017-06-04T00:46:21.345Z,76.80
2017-06-04T00:48:49.069Z,77.60
2017-06-04T00:51:16.830Z,77.60
2017-06-04T00:53:44.562Z,78.30
2017-06-04T00:56:12.332Z,79.40
2017-06-04T00:58:40.065Z,79.90
2017-06-04T01:01:07.821Z,80.10
2017-06-04T01:03:35.580Z,81.20
2017-06-04T01:06:03.315Z,82.40
2017-06-04T01:08:32.012Z,82.80
2017-06-04T01:10:59.740Z,82.80
2017-06-04T01:13:27.482Z,82.70
2017-06-04T01:15:55.235Z,84.10
2017-06-04T01:18:22.984Z,84.50
2017-06-04T01:20:50.762Z,85.20
2017-06-04T01:23:18.495Z,85.50
2017-06-04T01:25:46.231Z,86.10
2017-06-04T01:28:14.756Z,87.10
2017-06-04T01:30:42.496Z,87.10
2017-06-04T01:33:10.276Z,86.80
2017-06-04T01:35:38.011Z,87.60
2017-06-04T01:38:05.740Z,88.30
2017-06-04T01:40:34.267Z,90.00
2017-06-04T01:43:02.000Z,89.90
2017-06-04T01:45:29.768Z,89.80
2017-06-04T01:47:57.499Z,90.20
2017-06-04T01:50:26.033Z,90.50
2017-06-04T01:52:53.792Z,90.50
2017-06-04T01:55:21.526Z,90.80
2017-06-04T01:57:49.303Z,91.00
2017-06-04T02:00:17.045Z,90.90
2017-06-04T02:02:44.775Z,91.00
2017-06-04T02:05:12.552Z,91.40
2017-06-04T02:07:41.052Z,91.70
2017-06-04T02:10:08.846Z,91.70
2017-06-04T02:12:36.585Z,91.80
2017-06-04T02:15:04.327Z,91.90
2017-06-04T02:17:32.089Z,92.30
2017-06-04T02:19:59.820Z,92.30
2017-06-04T02:22:27.597Z,93.10
2017-06-04T02:24:56.109Z,92.80
2017-06-04T02:27:23.841Z,92.80
2017-06-04T02:29:51.640Z,93.40
2017-06-04T02:32:19.371Z,93.80
2017-06-04T02:34:47.905Z,94.10
2017-06-04T02:37:15.659Z,94.00
2017-06-04T02:39:43.391Z,93.90
2017-06-04T02:42:11.151Z,94.10
2017-06-04T02:44:38.905Z,94.50
2017-06-04T02:47:06.683Z,94.70
2017-06-04T02:49:34.411Z,94.60
2017-06-04T02:52:02.909Z,94.80
2017-06-04T02:54:30.673Z,94.80
2017-06-04T02:56:58.405Z,94.70
2017-06-04T02:59:26.940Z,94.60
2017-06-04T03:01:54.683Z,94.60
2017-06-04T03:04:22.416Z,94.40
2017-06-04T03:06:50.954Z,93.90
2017-06-04T03:09:18.684Z,93.80
2017-06-04T03:11:46.464Z,93.80
2017-06-04T03:14:14.200Z,93.70
2017-06-04T03:16:41.933Z,93.50
2017-06-04T03:19:10.461Z,92.70
2017-06-04T03:21:38.192Z,92.70
2017-06-04T03:24:05.959Z,92.40
2017-06-04T03:26:33.696Z,92.50
2017-06-04T03:29:02.192Z,91.60
2017-06-04T03:31:29.964Z,91.50
2017-06-04T03:33:57.697Z,90.60
2017-06-04T03:36:26.427Z,83.60
2017-06-04T03:38:54.159Z,83.50
2017-06-04T03:41:21.905Z,79.40
2017-06-04T03:43:49.676Z,75.80
2017-06-04T03:46:17.419Z,71.40
2017-06-04T03:48:45.955Z,64.60
2017-06-04T03:51:13.690Z,64.60
2017-06-04T03:53:41.420Z,58.10
2017-06-04T03:56:09.951Z,52.90
2017-06-04T03:58:37.683Z,52.80
2017-06-04T04:01:05.455Z,51.00
2017-06-04T04:03:33.188Z,49.00
2017-06-04T04:06:01.695Z,44.70
2017-06-04T04:08:29.456Z,44.60
2017-06-04T04:10:57.205Z,42.90
2017-06-04T04:13:24.972Z,43.20
2017-06-04T04:15:52.707Z,45.90
2017-06-04T04:18:21.217Z,55.00
2017-06-04T04:20:48.980Z,54.90
2017-06-04T04:23:16.713Z,57.90
2017-06-04T04:25:45.249Z,58.70
2017-06-04T04:28:12.979Z,58.60
2017-06-04T04:30:40.709Z,53.50
2017-06-04T04:33:09.240Z,49.00
2017-06-04T04:35:36.973Z,49.00
2017-06-04T04:38:04.759Z,50.70
2017-06-04T04:40:32.503Z,51.50
2017-06-04T04:43:00.240Z,53.20
2017-06-04T04:45:28.772Z,50.90
2017-06-04T04:47:56.503Z,50.90
2017-06-04T04:50:24.335Z,46.90
2017-06-04T04:52:52.847Z,42.70
2017-06-04T04:55:20.582Z,42.70
2017-06-04T04:57:49.108Z,42.20
2017-06-04T05:00:16.869Z,42.10
2017-06-04T05:02:44.645Z,42.50
2017-06-04T05:05:12.379Z,42.20
2017-06-04T05:07:40.113Z,41.60
2017-06-04T05:10:07.873Z,39.70
2017-06-04T05:12:35.604Z,38.40
2017-06-04T05:15:03.376Z,38.20
2017-06-04T05:17:31.901Z,36.10
2017-06-04T05:19:59.631Z,36.00
2017-06-04T05:22:27.397Z,36.00
2017-06-04T05:24:55.139Z,35.40
2017-06-04T05:27:29.321Z,33.40
2017-06-04T05:29:57.051Z,33.30
2017-06-04T05:32:24.783Z,34.00
2017-06-04T05:34:52.548Z,32.50
2017-06-04T05:37:20.284Z,30.60
2017-06-04T05:39:48.316Z,29.30
2017-06-04T05:42:16.044Z,27.80
2017-06-04T05:44:43.771Z,26.60
2017-06-04T05:47:11.532Z,26.50
2017-06-04T05:49:39.259Z,25.90
2017-06-04T05:52:07.026Z,25.50
2017-06-04T05:54:34.765Z,25.40
2017-06-04T05:57:02.500Z,25.50
2017-06-04T05:59:30.268Z,26.40
2017-06-04T06:01:57.998Z,29.70
2017-06-04T06:04:25.767Z,30.90
2017-06-04T06:06:54.268Z,30.70
2017-06-04T06:09:22.003Z,30.60
2017-06-04T06:11:50.541Z,27.20
2017-06-04T06:14:18.278Z,27.10
2017-06-04T06:16:46.047Z,26.00
2017-06-04T06:19:13.776Z,26.20
2017-06-04T06:21:42.277Z,27.70
2017-06-04T06:24:10.041Z,27.60
2017-06-04T06:26:37.787Z,28.00
2017-06-04T06:29:05.561Z,27.40
2017-06-04T06:31:33.300Z,28.00
2017-06-04T06:34:01.798Z,30.00
2017-06-04T06:36:29.571Z,29.90
2017-06-04T06:38:57.305Z,30.70
2017-06-04T06:41:25.079Z,31.60
2017-06-04T06:43:52.813Z,32.10
2017-06-04T06:46:21.308Z,33.00
2017-06-04T06:48:49.073Z,33.00
2017-06-04T06:51:16.809Z,34.60
2017-06-04T06:53:44.580Z,33.70
2017-06-04T06:56:13.077Z,34.40
2017-06-04T06:58:40.807Z,34.30
2017-06-04T07:01:08.567Z,33.00
2017-06-04T07:03:36.296Z,32.40
2017-06-04T07:06:04.069Z,32.60
2017-06-04T07:08:31.814Z,33.80
2017-06-04T07:10:59.556Z,34.70
2017-06-04T07:13:27.320Z,34.60
2017-06-04T07:15:55.059Z,35.90
2017-06-04T07:18:22.828Z,36.70
2017-06-04T07:20:50.567Z,37.10
2017-06-04T07:23:19.069Z,38.90
2017-06-04T07:25:46.835Z,38.80
2017-06-04T07:28:14.568Z,37.20
2017-06-04T07:30:43.108Z,36.70
2017-06-04T07:33:10.836Z,36.70
2017-06-04T07:35:38.572Z,36.60
2017-06-04T07:38:07.162Z,36.20
2017-06-04T07:40:34.924Z,36.20
2017-06-04T07:43:02.697Z,35.70
2017-06-04T07:45:30.448Z,34.00
2017-06-04T07:47:58.248Z,34.00
2017-06-04T07:50:26.036Z,33.30
2017-06-04T07:52:53.767Z,33.10
2017-06-04T07:55:21.539Z,34.00
2017-06-04T07:57:49.263Z,33.90
2017-06-04T08:00:16.992Z,35.70
2017-06-04T08:02:45.519Z,37.80
2017-06-04T08:05:13.247Z,37.60
2017-06-04T08:07:41.784Z,39.70
2017-06-04T08:10:09.531Z,39.60
2017-06-04T08:12:37.264Z,39.50
2017-06-04T08:15:05.020Z,40.20
2017-06-04T08:17:32.755Z,39.30
2017-06-04T08:20:01.302Z,39.50
2017-06-04T08:22:29.028Z,39.30
2017-06-04T08:24:56.752Z,39.60
2017-06-04T08:27:25.295Z,41.00
2017-06-04T08:29:53.020Z,40.90
2017-06-04T08:32:20.811Z,41.00
2017-06-04T08:34:48.541Z,39.00
2017-06-04T08:37:16.275Z,38.60
2017-06-04T08:39:44.062Z,39.20
2017-06-04T08:42:11.789Z,39.20
2017-06-04T08:44:39.560Z,37.80
2017-06-04T08:47:07.300Z,38.00
2017-06-04T08:49:35.031Z,38.30
2017-06-04T08:52:02.799Z,38.40
2017-06-04T08:54:30.524Z,38.90
2017-06-04T08:56:59.061Z,39.50
2017-06-04T08:59:26.792Z,39.50
2017-06-04T09:01:54.528Z,39.20
2017-06-04T09:04:22.287Z,38.80
2017-06-04T09:06:50.026Z,39.40
2017-06-04T09:09:17.798Z,38.80
2017-06-04T09:11:46.308Z,38.70
2017-06-04T09:14:14.296Z,38.60
2017-06-04T09:16:42.059Z,38.70
2017-06-04T09:19:09.797Z,39.50
2017-06-04T09:21:37.567Z,40.20
2017-06-04T09:24:05.300Z,40.30
2017-06-04T09:26:33.045Z,39.00
2017-06-04T09:29:01.568Z,37.10
2017-06-04T09:31:29.313Z,37.10
2017-06-04T09:33:57.084Z,37.50
2017-06-04T09:36:24.817Z,34.80
2017-06-04T09:38:52.580Z,35.80
2017-06-04T09:41:20.353Z,34.40
2017-06-04T09:43:48.087Z,33.80
2017-06-04T09:46:16.628Z,32.50
2017-06-04T09:48:44.473Z,32.50
2017-06-04T09:51:12.227Z,32.20
2017-06-04T09:53:40.000Z,32.10
2017-06-04T09:56:07.733Z,33.50
2017-06-04T09:58:35.527Z,33.30
2017-06-04T10:01:03.259Z,33.20
2017-06-04T10:03:31.690Z,33.60
2017-06-04T10:05:59.456Z,33.40
2017-06-04T10:08:27.200Z,33.10
2017-06-04T10:10:54.972Z,34.90
2017-06-04T10:13:22.770Z,36.00
2017-06-04T10:15:51.326Z,36.60
2017-06-04T10:18:19.089Z,36.60
2017-06-04T10:20:46.823Z,36.10
2017-06-04T10:23:14.638Z,35.60
2017-06-04T10:25:43.156Z,35.10
2017-06-04T10:28:10.887Z,35.10
2017-06-04T10:30:38.653Z,35.00
2017-06-04T10:33:06.477Z,35.10
2017-06-04T10:35:34.264Z,33.60
2017-06-04T10:38:02.804Z,33.70
2017-06-04T10:40:30.529Z,33.50
2017-06-04T10:42:58.290Z,33.80
2017-06-04T10:45:26.029Z,34.80
2017-06-04T10:47:54.553Z,37.70
2017-06-04T10:50:22.289Z,38.60
2017-06-04T10:52:50.015Z,39.30
2017-06-04T10:55:18.550Z,42.70
2017-06-04T10:57:46.280Z,42.60
2017-06-04T11:00:14.053Z,42.80
2017-06-04T11:02:41.800Z,44.10
2017-06-04T11:05:09.520Z,45.40
2017-06-04T11:07:37.279Z,46.00
2017-06-04T11:10:05.005Z,46.60
2017-06-04T11:12:32.782Z,47.70
2017-06-04T11:15:00.521Z,48.50
2017-06-04T11:17:28.248Z,48.80
2017-06-04T11:19:56.776Z,50.10
2017-06-04T11:22:24.505Z,50.00
2017-06-04T11:24:52.267Z,49.80
2017-06-04T11:27:19.991Z,49.10
2017-06-04T11:29:47.731Z,49.70
2017-06-04T11:32:15.495Z,49.50
2017-06-04T11:34:43.248Z,50.40
2017-06-04T11:37:11.307Z,51.50
2017-06-04T11:39:39.049Z,52.30
2017-06-04T11:42:06.780Z,53.30
2017-06-04T11:44:35.308Z,55.50
2017-06-04T11:47:03.043Z,55.40
2017-06-04T11:49:30.817Z,56.80
2017-06-04T11:51:58.552Z,57.30
2017-06-04T11:54:26.276Z,57.00
2017-06-04T11:56:54.032Z,56.80
2017-06-04T11:59:21.776Z,57.00
2017-06-04T12:01:49.556Z,56.80
2017-06-04T12:04:17.295Z,55.90
2017-06-04T12:06:45.027Z,55.60
2017-06-04T12:09:12.796Z,53.70
2017-06-04T12:11:40.529Z,53.10
2017-06-04T12:14:09.079Z,50.70
2017-06-04T12:16:36.853Z,50.70
2017-06-04T12:19:04.580Z,51.10
2017-06-04T12:21:32.336Z,50.90
2017-06-04T12:24:00.064Z,49.60
2017-06-04T12:26:27.840Z,49.60
2017-06-04T12:28:55.953Z,48.90
2017-06-04T12:31:23.687Z,47.50
2017-06-04T12:33:51.498Z,47.70
2017-06-04T12:36:20.063Z,47.20
2017-06-04T12:38:47.906Z,47.20
2017-06-04T12:41:15.677Z,46.80
2017-06-04T12:43:43.433Z,45.20
2017-06-04T12:46:11.407Z,44.40
2017-06-04T12:48:39.136Z,43.40
2017-06-04T12:51:06.912Z,42.60
2017-06-04T12:53:34.654Z,41.80
2017-06-04T12:56:02.385Z,41.40
2017-06-04T12:58:30.928Z,41.70
2017-06-04T13:00:58.675Z,41.60
2017-06-04T13:03:26.468Z,42.10
2017-06-04T13:05:54.201Z,41.90
2017-06-04T13:08:21.940Z,42.30
2017-06-04T13:10:49.705Z,41.70
2017-06-04T13:13:17.445Z,42.60
2017-06-04T13:15:45.267Z,42.70
2017-06-04T13:18:12.997Z,42.20
2017-06-04T13:20:40.725Z,41.60
2017-06-04T13:23:08.490Z,41.60
2017-06-04T13:25:36.224Z,41.30
2017-06-04T13:28:04.756Z,39.70
2017-06-04T13:30:32.483Z,39.80
2017-06-04T13:33:00.217Z,40.50
2017-06-04T13:35:27.976Z,42.10
2017-06-04T13:37:55.705Z,41.90
2017-06-04T13:40:23.486Z,43.30
2017-06-04T13:42:51.232Z,45.20
2017-06-04T13:45:18.955Z,45.80
2017-06-04T13:47:46.732Z,47.70
2017-06-04T13:50:14.466Z,52.10
2017-06-04T13:52:43.002Z,48.00
2017-06-04T13:55:10.740Z,48.00
2017-06-04T13:57:38.475Z,46.80
2017-06-04T14:00:06.233Z,45.20
2017-06-04T14:02:33.985Z,44.30
2017-06-04T14:05:02.521Z,42.60
2017-06-04T14:07:30.256Z,42.60
2017-06-04T14:09:57.980Z,42.30
2017-06-04T14:12:26.512Z,43.40
2017-06-04T14:14:54.239Z,42.70
2017-06-04T14:17:22.008Z,44.90
2017-06-04T14:19:49.742Z,46.20
2017-06-04T14:22:18.253Z,47.90
2017-06-04T14:24:46.011Z,47.90
2017-06-04T14:27:13.735Z,48.00
2017-06-04T14:29:41.512Z,48.80
2017-06-04T14:32:10.007Z,58.40
2017-06-04T14:34:37.741Z,58.30
2017-06-04T14:37:06.270Z,76.50
2017-06-04T14:39:34.003Z,76.60
2017-06-04T14:42:01.773Z,80.40
2017-06-04T14:44:29.504Z,95.90
2017-06-04T15:03:24.131Z,99.90
2017-06-04T15:05:51.961Z,99.90
2017-06-04T15:08:19.785Z,99.90
2017-06-04T15:10:48.289Z,99.90
2017-06-04T15:13:16.042Z,99.90
2017-06-04T15:15:44.164Z,99.90
2017-06-04T15:18:12.331Z,99.90
2017-06-04T15:20:40.127Z,99.90
2017-06-04T15:23:08.634Z,99.90
2017-06-04T15:25:36.364Z,99.90
2017-06-04T15:28:04.124Z,99.90
2017-06-04T15:30:31.868Z,99.90
2017-06-04T15:32:59.640Z,99.90
2017-06-04T15:35:28.141Z,99.90
2017-06-04T15:37:55.875Z,99.90
2017-06-04T15:40:23.649Z,99.90
2017-06-04T15:42:52.156Z,99.90
2017-06-04T15:45:19.949Z,99.90
2017-06-04T15:47:47.693Z,99.90
2017-06-04T15:50:15.429Z,99.90
2017-06-04T15:52:43.198Z,99.90
2017-06-04T15:55:10.932Z,99.90
2017-06-04T15:57:39.471Z,99.90
2017-06-04T16:00:07.208Z,99.90
2017-06-04T16:02:34.949Z,99.90
2017-06-04T16:05:03.839Z,99.90
2017-06-04T16:07:32.412Z,99.90
2017-06-04T16:10:00.191Z,99.90
2017-06-04T16:12:27.933Z,99.90
2017-06-04T16:14:56.442Z,99.90
2017-06-04T16:17:24.205Z,99.90
2017-06-04T16:19:51.932Z,99.90
2017-06-04T16:22:22.789Z,99.90
2017-06-04T16:24:50.541Z,99.90
2017-06-04T16:27:18.269Z,99.90
2017-06-04T16:29:46.035Z,99.90
2017-06-04T16:32:14.549Z,99.90
2017-06-04T16:34:42.637Z,99.90
2017-06-04T16:37:10.370Z,99.90
2017-06-04T16:39:38.179Z,99.90
2017-06-04T16:42:05.946Z,99.90
2017-06-04T16:44:33.673Z,99.90
2017-06-04T16:47:01.454Z,99.90
2017-06-04T16:49:29.189Z,99.90
2017-06-04T16:51:56.915Z,99.90
2017-06-04T16:54:25.452Z,99.90
2017-06-04T16:56:53.182Z,99.90
2017-06-04T16:59:20.972Z,99.90
2017-06-04T17:01:48.700Z,99.90
2017-06-04T17:04:16.444Z,99.90
2017-06-04T17:06:44.989Z,99.90
2017-06-04T17:09:12.721Z,99.90
2017-06-04T17:11:40.512Z,99.90
2017-06-04T17:14:08.248Z,99.90
2017-06-04T17:16:35.994Z,99.90
2017-06-04T17:19:03.759Z,99.90
2017-06-04T17:21:31.537Z,99.90
2017-06-04T17:23:59.305Z,99.90
2017-06-04T17:26:27.251Z,99.90
2017-06-04T17:28:55.876Z,99.90
2017-06-04T17:31:23.649Z,99.90
2017-06-04T17:33:52.203Z,99.90
2017-06-04T17:36:19.993Z,99.90
2017-06-04T17:38:47.764Z,99.90
2017-06-04T17:41:16.302Z,99.90
2017-06-04T17:43:44.093Z,99.90
2017-06-04T17:46:13.239Z,99.90
2017-06-04T17:48:41.053Z,99.90
2017-06-04T17:51:09.662Z,99.90
2017-06-04T17:53:37.459Z,99.90
2017-06-04T17:56:05.261Z,99.90
2017-06-04T17:58:33.761Z,99.90
2017-06-04T18:01:01.610Z,99.90
2017-06-04T18:03:30.261Z,99.90
2017-06-04T18:05:58.026Z,99.90
2017-06-04T18:08:25.793Z,99.90
2017-06-04T18:10:53.599Z,99.90
2017-06-04T18:13:21.549Z,99.90
2017-06-04T18:15:49.423Z,99.90
2017-06-04T18:18:17.217Z,99.90
2017-06-04T18:20:45.034Z,99.90
2017-06-04T18:23:18.194Z,99.90
2017-06-04T18:25:46.034Z,99.90
2017-06-04T18:28:13.782Z,99.90
2017-06-04T18:30:41.520Z,99.90
2017-06-04T18:33:09.441Z,99.90
2017-06-04T18:35:37.176Z,99.90
2017-06-04T18:38:04.945Z,99.90
2017-06-04T18:40:32.682Z,99.90
2017-06-04T18:43:00.415Z,99.90
2017-06-04T18:45:28.941Z,99.90
2017-06-04T18:47:56.681Z,99.90
2017-06-04T18:50:24.501Z,99.90
2017-06-04T18:52:52.247Z,99.90
2017-06-04T18:55:19.984Z,99.90
2017-06-04T18:57:47.759Z,99.90
2017-06-04T19:00:16.241Z,99.90
2017-06-04T19:02:44.017Z,99.90
2017-06-04T19:05:15.128Z,99.90
2017-06-04T19:07:43.929Z,99.90
2017-06-04T19:10:13.595Z,99.90
2017-06-04T19:12:41.330Z,99.90
2017-06-04T19:15:09.864Z,99.90
2017-06-04T19:17:39.553Z,99.90
2017-06-04T19:20:07.344Z,99.90
2017-06-04T19:22:35.109Z,99.90
2017-06-04T19:25:02.852Z,99.90
2017-06-04T19:27:32.380Z,99.90
2017-06-04T19:30:00.447Z,99.90
2017-06-04T19:32:28.246Z,99.90
2017-06-04T19:34:55.988Z,99.90
2017-06-04T19:37:24.505Z,99.90
2017-06-04T19:39:52.277Z,99.90
2017-06-04T19:42:20.034Z,99.90
2017-06-04T19:44:47.817Z,99.90
2017-06-04T19:47:15.624Z,99.90
2017-06-04T19:49:43.382Z,99.90
2017-06-04T19:52:11.911Z,99.90
2017-06-04T19:54:39.659Z,99.90
2017-06-04T19:57:07.442Z,99.90
2017-06-04T19:59:35.181Z,99.90
2017-06-04T20:02:02.917Z,99.90
2017-06-04T20:04:30.692Z,99.90
2017-06-04T20:06:58.497Z,99.90
2017-06-04T20:09:26.285Z,99.90
2017-06-04T20:11:54.784Z,99.90
2017-06-04T20:14:22.540Z,99.90
2017-06-04T20:16:50.397Z,99.90
2017-06-04T20:19:18.908Z,99.90
2017-06-04T20:21:46.710Z,99.90
2017-06-04T20:24:14.449Z,99.90
2017-06-04T20:26:42.192Z,99.90
2017-06-04T20:29:09.965Z,99.90
2017-06-04T20:31:37.704Z,99.90
2017-06-04T20:34:05.487Z,99.90
2017-06-04T20:36:33.364Z,99.90
2017-06-04T20:39:01.124Z,99.90
2017-06-04T20:41:28.893Z,99.90
2017-06-04T20:43:56.638Z,99.90
2017-06-04T20:46:24.416Z,99.90
2017-06-04T20:48:52.153Z,99.90
2017-06-04T20:51:19.909Z,99.90
2017-06-04T20:53:47.685Z,99.90
2017-06-04T20:56:15.436Z,99.90
2017-06-04T20:58:43.218Z,99.90
2017-06-04T21:01:10.960Z,99.90
2017-06-04T21:03:38.825Z,99.90
2017-06-04T21:06:08.034Z,99.90
2017-06-04T21:08:35.873Z,99.90
2017-06-04T21:11:03.676Z,99.90
2017-06-04T21:13:33.798Z,99.90
2017-06-04T21:16:01.565Z,99.90
2017-06-04T21:18:30.113Z,99.90
2017-06-04T21:20:57.879Z,99.90
2017-06-04T21:23:25.693Z,99.90
2017-06-04T21:25:53.432Z,99.90
2017-06-04T21:28:21.942Z,99.90
2017-06-04T21:30:49.712Z,99.90
2017-06-04T21:33:17.459Z,99.90
2017-06-04T21:35:45.376Z,99.90
2017-06-04T21:38:13.129Z,99.90
2017-06-04T21:40:41.061Z,99.90
2017-06-04T21:43:09.097Z,99.90
2017-06-04T21:45:37.695Z,99.90
2017-06-04T21:48:05.662Z,99.90
2017-06-04T21:50:33.418Z,99.90
2017-06-04T21:53:01.159Z,99.90
2017-06-04T21:55:29.693Z,99.90
2017-06-04T21:57:58.041Z,99.90
2017-06-04T22:00:25.907Z,99.90
2017-06-04T22:02:53.681Z,99.90
2017-06-04T22:05:21.442Z,99.90
2017-06-04T22:07:49.214Z,99.90
2017-06-04T22:10:16.961Z,99.90
2017-06-04T22:12:44.779Z,99.90
2017-06-04T22:15:12.541Z,99.90
2017-06-04T22:17:40.290Z,99.90
2017-06-04T22:20:08.073Z,99.90
2017-06-04T22:22:35.813Z,99.90
2017-06-04T22:25:03.610Z,99.90
2017-06-04T22:27:31.357Z,99.90
2017-06-04T22:29:59.878Z,99.90
2017-06-04T22:32:27.665Z,99.90
2017-06-04T22:34:55.483Z,99.90
2017-06-04T22:37:24.232Z,99.90
2017-06-04T22:39:51.973Z,99.90
2017-06-04T22:42:19.716Z,99.90
2017-06-04T22:44:47.480Z,99.90
2017-06-04T22:47:15.235Z,99.90
2017-06-04T22:49:43.020Z,99.90
2017-06-04T22:52:10.761Z,99.90
2017-06-04T22:54:38.509Z,99.90
2017-06-04T22:57:06.279Z,99.90
2017-06-04T22:59:34.017Z,99.90
2017-06-04T23:02:01.792Z,99.90
2017-06-04T23:04:29.529Z,99.90
2017-06-04T23:06:57.268Z,99.90
2017-06-04T23:09:25.049Z,99.90
2017-06-04T23:11:53.582Z,99.90
2017-06-04T23:14:21.366Z,99.90
2017-06-04T23:16:49.113Z,99.90
2017-06-04T23:19:16.854Z,99.90
2017-06-04T23:21:44.637Z,99.90
2017-06-04T23:24:12.373Z,99.90
2017-06-04T23:26:40.158Z,99.90
2017-06-04T23:29:07.893Z,99.90
2017-06-04T23:31:35.628Z,99.90
2017-06-04T23:34:03.393Z,99.90
2017-06-04T23:36:31.133Z,99.90
2017-06-04T23:38:59.721Z,99.90
2017-06-04T23:41:28.232Z,99.90
2017-06-04T23:43:55.963Z,99.90
2017-06-04T23:46:23.728Z,99.90
2017-06-04T23:48:51.467Z,99.90
2017-06-04T23:51:20.013Z,99.90
2017-06-04T23:53:47.752Z,99.90
2017-06-04T23:56:15.496Z,99.90
2017-06-04T23:58:43.260Z,99.90
